sensor_id;sensor_type;location;lat;lon;timestamp;P1;durP1;ratioP1;P2;durP2;ratioP2
44130;SDS011;29792;48.726;9.248;2023-12-22T00:00:26;2.20;;;0.50;;
44130;SDS011;29792;48.726;9.248;2023-12-22T00:02:51;1.35;;;0.60;;
44130;SDS011;29792;48.726;9.248;2023-12-22T00:05:17;1.40;;;0.68;;
44130;SDS011;29792;48.726;9.248;2023-12-22T00:07:42;3.50;;;1.17;;
44130;SDS011;29792;48.726;9.248;2023-12-22T00:10:07;5.50;;;1.10;;
44130;SDS011;29792;48.726;9.248;2023-12-22T00:12:34;1.85;;;0.65;;
44130;SDS011;29792;48.726;9.248;2023-12-22T00:14:59;1.85;;;0.60;;
44130;SDS011;29792;48.726;9.248;2023-12-22T00:17:24;5.55;;;0.98;;
44130;SDS011;29792;48.726;9.248;2023-12-22T00:19:50;5.38;;;1.80;;
44130;SDS011;29792;48.726;9.248;2023-12-22T00:22:15;4.40;;;0.80;;
44130;SDS011;29792;48.726;9.248;2023-12-22T00:24:40;8.20;;;1.95;;
44130;SDS011;29792;48.726;9.248;2023-12-22T00:27:05;6.30;;;2.35;;
44130;SDS011;29792;48.726;9.248;2023-12-22T00:29:31;6.63;;;1.50;;
44130;SDS011;29792;48.726;9.248;2023-12-22T00:31:57;3.42;;;0.95;;
44130;SDS011;29792;48.726;9.248;2023-12-22T00:34:22;7.20;;;2.03;;
44130;SDS011;29792;48.726;9.248;2023-12-22T00:36:47;4.65;;;0.65;;
44130;SDS011;29792;48.726;9.248;2023-12-22T00:39:13;6.43;;;1.02;;
44130;SDS011;29792;48.726;9.248;2023-12-22T00:41:38;2.65;;;1.20;;
44130;SDS011;29792;48.726;9.248;2023-12-22T00:44:04;5.03;;;1.10;;
44130;SDS011;29792;48.726;9.248;2023-12-22T00:46:29;2.72;;;0.98;;
44130;SDS011;29792;48.726;9.248;2023-12-22T00:48:54;3.75;;;1.30;;
44130;SDS011;29792;48.726;9.248;2023-12-22T00:51:20;2.50;;;0.90;;
44130;SDS011;29792;48.726;9.248;2023-12-22T00:53:45;2.80;;;1.15;;
44130;SDS011;29792;48.726;9.248;2023-12-22T00:56:10;3.10;;;0.90;;
44130;SDS011;29792;48.726;9.248;2023-12-22T00:58:38;3.50;;;1.30;;
44130;SDS011;29792;48.726;9.248;2023-12-22T01:01:03;2.78;;;1.30;;
44130;SDS011;29792;48.726;9.248;2023-12-22T01:03:29;3.05;;;0.65;;
44130;SDS011;29792;48.726;9.248;2023-12-22T01:05:54;3.22;;;1.20;;
44130;SDS011;29792;48.726;9.248;2023-12-22T01:08:19;3.65;;;2.05;;
44130;SDS011;29792;48.726;9.248;2023-12-22T01:10:45;4.72;;;1.02;;
44130;SDS011;29792;48.726;9.248;2023-12-22T01:13:11;2.00;;;1.00;;
44130;SDS011;29792;48.726;9.248;2023-12-22T01:15:36;4.18;;;0.93;;
44130;SDS011;29792;48.726;9.248;2023-12-22T01:18:01;5.78;;;1.60;;
44130;SDS011;29792;48.726;9.248;2023-12-22T01:20:27;4.30;;;1.20;;
44130;SDS011;29792;48.726;9.248;2023-12-22T01:22:52;2.28;;;0.82;;
44130;SDS011;29792;48.726;9.248;2023-12-22T01:25:17;2.08;;;1.02;;
44130;SDS011;29792;48.726;9.248;2023-12-22T01:27:42;8.98;;;1.23;;
44130;SDS011;29792;48.726;9.248;2023-12-22T01:30:08;4.97;;;1.05;;
44130;SDS011;29792;48.726;9.248;2023-12-22T01:32:33;5.20;;;1.15;;
44130;SDS011;29792;48.726;9.248;2023-12-22T01:34:59;5.50;;;1.17;;
44130;SDS011;29792;48.726;9.248;2023-12-22T01:37:28;2.75;;;1.02;;
44130;SDS011;29792;48.726;9.248;2023-12-22T01:39:53;2.97;;;1.30;;
44130;SDS011;29792;48.726;9.248;2023-12-22T01:42:19;1.15;;;0.57;;
44130;SDS011;29792;48.726;9.248;2023-12-22T01:44:45;5.07;;;1.05;;
44130;SDS011;29792;48.726;9.248;2023-12-22T01:47:10;5.18;;;1.05;;
44130;SDS011;29792;48.726;9.248;2023-12-22T01:49:35;3.75;;;0.77;;
44130;SDS011;29792;48.726;9.248;2023-12-22T01:52:00;3.45;;;0.80;;
44130;SDS011;29792;48.726;9.248;2023-12-22T01:54:26;3.03;;;1.55;;
44130;SDS011;29792;48.726;9.248;2023-12-22T01:56:51;1.95;;;0.60;;
44130;SDS011;29792;48.726;9.248;2023-12-22T01:59:17;0.95;;;0.45;;
44130;SDS011;29792;48.726;9.248;2023-12-22T02:01:42;4.93;;;1.27;;
44130;SDS011;29792;48.726;9.248;2023-12-22T02:04:10;0.82;;;0.47;;
44130;SDS011;29792;48.726;9.248;2023-12-22T02:06:36;2.13;;;0.35;;
44130;SDS011;29792;48.726;9.248;2023-12-22T02:09:02;4.57;;;0.30;;
44130;SDS011;29792;48.726;9.248;2023-12-22T02:11:29;3.42;;;0.50;;
44130;SDS011;29792;48.726;9.248;2023-12-22T02:13:54;3.70;;;0.50;;
44130;SDS011;29792;48.726;9.248;2023-12-22T02:22:17;1.25;;;0.68;;
44130;SDS011;29792;48.726;9.248;2023-12-22T02:24:42;0.63;;;0.40;;
44130;SDS011;29792;48.726;9.248;2023-12-22T02:29:54;1.27;;;0.40;;
44130;SDS011;29792;48.726;9.248;2023-12-22T02:32:36;1.80;;;1.03;;
44130;SDS011;29792;48.726;9.248;2023-12-22T02:35:07;3.38;;;0.50;;
44130;SDS011;29792;48.726;9.248;2023-12-22T02:37:35;6.90;;;1.58;;
44130;SDS011;29792;48.726;9.248;2023-12-22T02:40:02;4.63;;;0.63;;
44130;SDS011;29792;48.726;9.248;2023-12-22T02:42:28;3.78;;;0.70;;
44130;SDS011;29792;48.726;9.248;2023-12-22T02:44:58;2.75;;;0.80;;
44130;SDS011;29792;48.726;9.248;2023-12-22T02:47:24;2.47;;;0.70;;
44130;SDS011;29792;48.726;9.248;2023-12-22T02:49:50;5.45;;;0.65;;
44130;SDS011;29792;48.726;9.248;2023-12-22T02:52:15;5.75;;;0.82;;
44130;SDS011;29792;48.726;9.248;2023-12-22T02:54:40;2.05;;;0.73;;
44130;SDS011;29792;48.726;9.248;2023-12-22T02:57:09;3.13;;;0.68;;
44130;SDS011;29792;48.726;9.248;2023-12-22T02:59:34;2.55;;;1.65;;
44130;SDS011;29792;48.726;9.248;2023-12-22T03:01:59;1.75;;;0.77;;
44130;SDS011;29792;48.726;9.248;2023-12-22T03:04:25;2.83;;;0.70;;
44130;SDS011;29792;48.726;9.248;2023-12-22T03:06:50;2.50;;;1.25;;
44130;SDS011;29792;48.726;9.248;2023-12-22T03:09:16;1.77;;;0.60;;
44130;SDS011;29792;48.726;9.248;2023-12-22T03:11:41;3.13;;;1.55;;
44130;SDS011;29792;48.726;9.248;2023-12-22T03:14:07;5.53;;;0.98;;
44130;SDS011;29792;48.726;9.248;2023-12-22T03:16:32;1.27;;;0.45;;
44130;SDS011;29792;48.726;9.248;2023-12-22T03:18:57;2.85;;;0.82;;
44130;SDS011;29792;48.726;9.248;2023-12-22T03:21:22;3.72;;;0.60;;
44130;SDS011;29792;48.726;9.248;2023-12-22T03:23:48;2.10;;;0.73;;
44130;SDS011;29792;48.726;9.248;2023-12-22T03:26:13;1.70;;;0.65;;
44130;SDS011;29792;48.726;9.248;2023-12-22T03:28:38;5.28;;;1.27;;
44130;SDS011;29792;48.726;9.248;2023-12-22T03:31:04;1.50;;;0.70;;
44130;SDS011;29792;48.726;9.248;2023-12-22T03:33:31;4.13;;;0.52;;
44130;SDS011;29792;48.726;9.248;2023-12-22T03:35:56;1.90;;;0.70;;
44130;SDS011;29792;48.726;9.248;2023-12-22T03:38:21;5.47;;;0.60;;
44130;SDS011;29792;48.726;9.248;2023-12-22T03:40:46;2.05;;;0.50;;
44130;SDS011;29792;48.726;9.248;2023-12-22T03:43:12;4.07;;;0.70;;
44130;SDS011;29792;48.726;9.248;2023-12-22T03:45:37;1.33;;;0.43;;
44130;SDS011;29792;48.726;9.248;2023-12-22T03:48:02;2.38;;;1.23;;
44130;SDS011;29792;48.726;9.248;2023-12-22T03:50:28;4.18;;;0.77;;
44130;SDS011;29792;48.726;9.248;2023-12-22T03:52:53;2.78;;;0.60;;
44130;SDS011;29792;48.726;9.248;2023-12-22T03:55:18;2.38;;;0.93;;
44130;SDS011;29792;48.726;9.248;2023-12-22T03:57:44;3.08;;;1.15;;
44130;SDS011;29792;48.726;9.248;2023-12-22T04:00:09;1.77;;;1.30;;
44130;SDS011;29792;48.726;9.248;2023-12-22T04:02:35;6.10;;;1.70;;
44130;SDS011;29792;48.726;9.248;2023-12-22T04:05:00;10.25;;;1.25;;
44130;SDS011;29792;48.726;9.248;2023-12-22T04:07:25;2.53;;;0.90;;
44130;SDS011;29792;48.726;9.248;2023-12-22T04:09:50;7.28;;;1.63;;
44130;SDS011;29792;48.726;9.248;2023-12-22T04:12:16;4.25;;;0.70;;
44130;SDS011;29792;48.726;9.248;2023-12-22T04:14:41;4.18;;;1.75;;
44130;SDS011;29792;48.726;9.248;2023-12-22T04:17:06;3.63;;;0.98;;
44130;SDS011;29792;48.726;9.248;2023-12-22T04:19:31;1.98;;;0.80;;
44130;SDS011;29792;48.726;9.248;2023-12-22T04:21:57;10.40;;;1.50;;
44130;SDS011;29792;48.726;9.248;2023-12-22T04:24:22;6.63;;;1.52;;
44130;SDS011;29792;48.726;9.248;2023-12-22T04:26:47;2.50;;;1.35;;
44130;SDS011;29792;48.726;9.248;2023-12-22T04:29:13;4.63;;;1.58;;
44130;SDS011;29792;48.726;9.248;2023-12-22T04:31:39;7.40;;;1.65;;
44130;SDS011;29792;48.726;9.248;2023-12-22T04:34:04;6.47;;;1.80;;
44130;SDS011;29792;48.726;9.248;2023-12-22T04:36:29;4.78;;;1.20;;
44130;SDS011;29792;48.726;9.248;2023-12-22T04:38:57;8.77;;;1.10;;
44130;SDS011;29792;48.726;9.248;2023-12-22T04:41:23;2.30;;;0.60;;
44130;SDS011;29792;48.726;9.248;2023-12-22T04:43:48;6.32;;;1.52;;
44130;SDS011;29792;48.726;9.248;2023-12-22T04:46:13;5.63;;;1.33;;
44130;SDS011;29792;48.726;9.248;2023-12-22T04:48:39;2.13;;;0.75;;
44130;SDS011;29792;48.726;9.248;2023-12-22T04:51:04;3.13;;;0.73;;
44130;SDS011;29792;48.726;9.248;2023-12-22T04:53:29;1.45;;;0.77;;
44130;SDS011;29792;48.726;9.248;2023-12-22T04:55:54;3.05;;;0.70;;
44130;SDS011;29792;48.726;9.248;2023-12-22T04:58:20;3.20;;;0.88;;
44130;SDS011;29792;48.726;9.248;2023-12-22T05:00:45;4.25;;;0.70;;
44130;SDS011;29792;48.726;9.248;2023-12-22T05:03:10;2.08;;;0.80;;
44130;SDS011;29792;48.726;9.248;2023-12-22T05:05:35;1.00;;;0.70;;
44130;SDS011;29792;48.726;9.248;2023-12-22T05:08:01;6.22;;;1.50;;
44130;SDS011;29792;48.726;9.248;2023-12-22T05:10:26;2.15;;;0.68;;
44130;SDS011;29792;48.726;9.248;2023-12-22T05:12:51;4.70;;;0.60;;
44130;SDS011;29792;48.726;9.248;2023-12-22T05:15:16;4.88;;;0.80;;
44130;SDS011;29792;48.726;9.248;2023-12-22T05:17:42;2.15;;;0.95;;
44130;SDS011;29792;48.726;9.248;2023-12-22T05:20:08;4.90;;;1.02;;
44130;SDS011;29792;48.726;9.248;2023-12-22T05:22:35;2.55;;;0.95;;
44130;SDS011;29792;48.726;9.248;2023-12-22T05:25:01;5.05;;;0.80;;
44130;SDS011;29792;48.726;9.248;2023-12-22T05:27:27;5.57;;;1.58;;
44130;SDS011;29792;48.726;9.248;2023-12-22T05:29:52;6.00;;;1.98;;
44130;SDS011;29792;48.726;9.248;2023-12-22T05:32:17;3.20;;;0.90;;
44130;SDS011;29792;48.726;9.248;2023-12-22T05:34:43;4.90;;;1.67;;
44130;SDS011;29792;48.726;9.248;2023-12-22T05:37:08;4.88;;;2.40;;
44130;SDS011;29792;48.726;9.248;2023-12-22T05:39:33;3.10;;;1.65;;
44130;SDS011;29792;48.726;9.248;2023-12-22T05:41:58;7.13;;;2.80;;
44130;SDS011;29792;48.726;9.248;2023-12-22T05:44:24;5.38;;;1.38;;
44130;SDS011;29792;48.726;9.248;2023-12-22T05:46:49;8.10;;;1.60;;
44130;SDS011;29792;48.726;9.248;2023-12-22T05:49:15;6.68;;;2.33;;
44130;SDS011;29792;48.726;9.248;2023-12-22T05:51:40;5.75;;;2.22;;
44130;SDS011;29792;48.726;9.248;2023-12-22T05:54:09;5.70;;;1.88;;
44130;SDS011;29792;48.726;9.248;2023-12-22T05:56:35;3.97;;;0.88;;
44130;SDS011;29792;48.726;9.248;2023-12-22T05:59:01;4.88;;;1.45;;
44130;SDS011;29792;48.726;9.248;2023-12-22T06:01:26;10.18;;;2.08;;
44130;SDS011;29792;48.726;9.248;2023-12-22T06:03:52;8.27;;;1.90;;
44130;SDS011;29792;48.726;9.248;2023-12-22T06:06:18;10.65;;;4.10;;
44130;SDS011;29792;48.726;9.248;2023-12-22T06:08:43;6.97;;;2.20;;
44130;SDS011;29792;48.726;9.248;2023-12-22T06:11:08;2.92;;;1.05;;
44130;SDS011;29792;48.726;9.248;2023-12-22T06:13:34;10.65;;;1.70;;
44130;SDS011;29792;48.726;9.248;2023-12-22T06:15:59;8.10;;;2.35;;
44130;SDS011;29792;48.726;9.248;2023-12-22T06:18:24;3.33;;;1.52;;
44130;SDS011;29792;48.726;9.248;2023-12-22T06:20:50;8.23;;;1.42;;
44130;SDS011;29792;48.726;9.248;2023-12-22T06:23:15;4.32;;;1.40;;
44130;SDS011;29792;48.726;9.248;2023-12-22T06:25:40;6.15;;;1.90;;
44130;SDS011;29792;48.726;9.248;2023-12-22T06:28:05;3.40;;;0.88;;
44130;SDS011;29792;48.726;9.248;2023-12-22T06:30:31;2.60;;;1.40;;
44130;SDS011;29792;48.726;9.248;2023-12-22T06:32:56;5.38;;;1.58;;
44130;SDS011;29792;48.726;9.248;2023-12-22T06:35:21;5.60;;;1.75;;
44130;SDS011;29792;48.726;9.248;2023-12-22T06:37:50;5.38;;;0.95;;
44130;SDS011;29792;48.726;9.248;2023-12-22T06:40:15;7.35;;;1.17;;
44130;SDS011;29792;48.726;9.248;2023-12-22T06:42:40;3.95;;;1.92;;
44130;SDS011;29792;48.726;9.248;2023-12-22T06:45:06;5.85;;;1.40;;
44130;SDS011;29792;48.726;9.248;2023-12-22T06:47:32;5.20;;;1.58;;
44130;SDS011;29792;48.726;9.248;2023-12-22T06:49:57;3.90;;;1.23;;
44130;SDS011;29792;48.726;9.248;2023-12-22T06:52:22;14.00;;;1.98;;
44130;SDS011;29792;48.726;9.248;2023-12-22T06:54:47;3.53;;;1.52;;
44130;SDS011;29792;48.726;9.248;2023-12-22T06:57:13;6.80;;;1.80;;
44130;SDS011;29792;48.726;9.248;2023-12-22T06:59:38;2.40;;;1.08;;
44130;SDS011;29792;48.726;9.248;2023-12-22T07:02:04;4.25;;;1.50;;
44130;SDS011;29792;48.726;9.248;2023-12-22T07:04:29;5.35;;;1.45;;
44130;SDS011;29792;48.726;9.248;2023-12-22T07:06:54;4.55;;;1.55;;
44130;SDS011;29792;48.726;9.248;2023-12-22T07:11:49;6.15;;;1.73;;
44130;SDS011;29792;48.726;9.248;2023-12-22T07:14:16;5.03;;;1.38;;
44130;SDS011;29792;48.726;9.248;2023-12-22T07:16:41;3.35;;;0.73;;
44130;SDS011;29792;48.726;9.248;2023-12-22T07:19:07;4.75;;;0.90;;
44130;SDS011;29792;48.726;9.248;2023-12-22T07:21:33;8.65;;;3.55;;
44130;SDS011;29792;48.726;9.248;2023-12-22T07:23:59;5.22;;;1.48;;
44130;SDS011;29792;48.726;9.248;2023-12-22T07:26:24;7.38;;;1.15;;
44130;SDS011;29792;48.726;9.248;2023-12-22T07:28:51;5.88;;;1.50;;
44130;SDS011;29792;48.726;9.248;2023-12-22T07:31:17;4.20;;;0.70;;
44130;SDS011;29792;48.726;9.248;2023-12-22T07:33:42;7.28;;;1.88;;
44130;SDS011;29792;48.726;9.248;2023-12-22T07:36:08;7.45;;;2.15;;
44130;SDS011;29792;48.726;9.248;2023-12-22T07:38:33;3.03;;;0.80;;
44130;SDS011;29792;48.726;9.248;2023-12-22T07:40:59;6.35;;;1.63;;
44130;SDS011;29792;48.726;9.248;2023-12-22T07:43:24;7.28;;;2.35;;
44130;SDS011;29792;48.726;9.248;2023-12-22T07:45:50;5.97;;;1.55;;
44130;SDS011;29792;48.726;9.248;2023-12-22T07:48:16;9.18;;;1.55;;
44130;SDS011;29792;48.726;9.248;2023-12-22T07:50:42;2.20;;;1.15;;
44130;SDS011;29792;48.726;9.248;2023-12-22T07:53:07;6.38;;;1.10;;
44130;SDS011;29792;48.726;9.248;2023-12-22T07:55:33;3.10;;;1.30;;
44130;SDS011;29792;48.726;9.248;2023-12-22T07:57:58;6.20;;;2.00;;
44130;SDS011;29792;48.726;9.248;2023-12-22T08:00:23;4.43;;;0.90;;
44130;SDS011;29792;48.726;9.248;2023-12-22T08:02:49;6.43;;;0.95;;
44130;SDS011;29792;48.726;9.248;2023-12-22T08:05:14;4.45;;;1.13;;
44130;SDS011;29792;48.726;9.248;2023-12-22T08:07:43;6.78;;;1.20;;
44130;SDS011;29792;48.726;9.248;2023-12-22T08:10:09;3.80;;;1.38;;
44130;SDS011;29792;48.726;9.248;2023-12-22T08:12:34;3.47;;;1.38;;
44130;SDS011;29792;48.726;9.248;2023-12-22T08:15:00;6.68;;;2.38;;
44130;SDS011;29792;48.726;9.248;2023-12-22T08:17:25;4.82;;;1.30;;
44130;SDS011;29792;48.726;9.248;2023-12-22T08:19:52;5.22;;;1.23;;
44130;SDS011;29792;48.726;9.248;2023-12-22T08:22:17;4.07;;;1.08;;
44130;SDS011;29792;48.726;9.248;2023-12-22T08:24:42;10.50;;;2.35;;
44130;SDS011;29792;48.726;9.248;2023-12-22T08:27:08;7.97;;;2.30;;
44130;SDS011;29792;48.726;9.248;2023-12-22T08:29:34;6.13;;;1.35;;
44130;SDS011;29792;48.726;9.248;2023-12-22T08:31:59;6.90;;;1.63;;
44130;SDS011;29792;48.726;9.248;2023-12-22T08:34:25;8.85;;;1.27;;
44130;SDS011;29792;48.726;9.248;2023-12-22T08:36:51;9.93;;;3.40;;
44130;SDS011;29792;48.726;9.248;2023-12-22T08:39:16;8.93;;;2.92;;
44130;SDS011;29792;48.726;9.248;2023-12-22T08:41:41;6.32;;;2.55;;
44130;SDS011;29792;48.726;9.248;2023-12-22T08:44:07;9.30;;;2.17;;
44130;SDS011;29792;48.726;9.248;2023-12-22T08:46:32;10.40;;;2.40;;
44130;SDS011;29792;48.726;9.248;2023-12-22T08:48:58;8.35;;;1.40;;
44130;SDS011;29792;48.726;9.248;2023-12-22T08:51:24;13.10;;;2.55;;
44130;SDS011;29792;48.726;9.248;2023-12-22T08:53:50;8.10;;;2.15;;
44130;SDS011;29792;48.726;9.248;2023-12-22T08:56:17;8.00;;;1.88;;
44130;SDS011;29792;48.726;9.248;2023-12-22T08:58:43;9.50;;;2.53;;
44130;SDS011;29792;48.726;9.248;2023-12-22T09:01:13;5.32;;;2.00;;
44130;SDS011;29792;48.726;9.248;2023-12-22T09:03:39;5.35;;;1.40;;
44130;SDS011;29792;48.726;9.248;2023-12-22T09:06:11;8.23;;;1.63;;
44130;SDS011;29792;48.726;9.248;2023-12-22T09:08:38;6.22;;;1.02;;
44130;SDS011;29792;48.726;9.248;2023-12-22T09:11:04;4.53;;;1.40;;
44130;SDS011;29792;48.726;9.248;2023-12-22T09:13:29;9.50;;;1.90;;
44130;SDS011;29792;48.726;9.248;2023-12-22T09:15:56;9.85;;;1.48;;
44130;SDS011;29792;48.726;9.248;2023-12-22T09:18:22;11.25;;;3.17;;
44130;SDS011;29792;48.726;9.248;2023-12-22T09:20:48;8.38;;;1.70;;
44130;SDS011;29792;48.726;9.248;2023-12-22T09:23:13;6.05;;;2.65;;
44130;SDS011;29792;48.726;9.248;2023-12-22T09:25:39;10.45;;;2.92;;
44130;SDS011;29792;48.726;9.248;2023-12-22T09:28:04;10.65;;;2.45;;
44130;SDS011;29792;48.726;9.248;2023-12-22T09:30:29;8.75;;;2.20;;
44130;SDS011;29792;48.726;9.248;2023-12-22T09:32:55;5.53;;;2.20;;
44130;SDS011;29792;48.726;9.248;2023-12-22T09:35:20;5.82;;;2.70;;
44130;SDS011;29792;48.726;9.248;2023-12-22T09:37:46;6.35;;;2.05;;
44130;SDS011;29792;48.726;9.248;2023-12-22T09:40:12;7.53;;;3.20;;
44130;SDS011;29792;48.726;9.248;2023-12-22T09:42:38;8.20;;;2.80;;
44130;SDS011;29792;48.726;9.248;2023-12-22T09:45:06;10.63;;;1.98;;
44130;SDS011;29792;48.726;9.248;2023-12-22T09:47:35;7.90;;;1.98;;
44130;SDS011;29792;48.726;9.248;2023-12-22T09:50:02;11.75;;;3.58;;
44130;SDS011;29792;48.726;9.248;2023-12-22T09:52:27;13.18;;;3.10;;
44130;SDS011;29792;48.726;9.248;2023-12-22T09:54:54;7.55;;;3.38;;
44130;SDS011;29792;48.726;9.248;2023-12-22T09:57:21;14.25;;;2.53;;
44130;SDS011;29792;48.726;9.248;2023-12-22T09:59:49;7.78;;;2.17;;
44130;SDS011;29792;48.726;9.248;2023-12-22T10:02:17;14.13;;;3.03;;
44130;SDS011;29792;48.726;9.248;2023-12-22T10:04:42;8.43;;;2.85;;
44130;SDS011;29792;48.726;9.248;2023-12-22T10:07:07;8.48;;;2.97;;
44130;SDS011;29792;48.726;9.248;2023-12-22T10:09:38;12.80;;;2.75;;
44130;SDS011;29792;48.726;9.248;2023-12-22T10:12:04;10.88;;;3.17;;
44130;SDS011;29792;48.726;9.248;2023-12-22T10:14:31;11.38;;;3.42;;
44130;SDS011;29792;48.726;9.248;2023-12-22T10:16:58;8.20;;;3.25;;
44130;SDS011;29792;48.726;9.248;2023-12-22T10:19:24;18.20;;;4.05;;
44130;SDS011;29792;48.726;9.248;2023-12-22T10:21:49;10.80;;;3.33;;
44130;SDS011;29792;48.726;9.248;2023-12-22T10:27:07;8.98;;;2.53;;
44130;SDS011;29792;48.726;9.248;2023-12-22T10:29:33;14.77;;;3.90;;
44130;SDS011;29792;48.726;9.248;2023-12-22T10:32:00;7.95;;;2.30;;
44130;SDS011;29792;48.726;9.248;2023-12-22T10:34:26;9.23;;;1.95;;
44130;SDS011;29792;48.726;9.248;2023-12-22T10:36:51;7.78;;;3.85;;
44130;SDS011;29792;48.726;9.248;2023-12-22T10:39:17;13.00;;;3.38;;
44130;SDS011;29792;48.726;9.248;2023-12-22T10:41:42;11.65;;;2.97;;
44130;SDS011;29792;48.726;9.248;2023-12-22T10:44:09;11.57;;;2.45;;
44130;SDS011;29792;48.726;9.248;2023-12-22T10:46:34;9.75;;;3.40;;
44130;SDS011;29792;48.726;9.248;2023-12-22T10:49:00;10.13;;;2.40;;
44130;SDS011;29792;48.726;9.248;2023-12-22T10:51:28;9.48;;;2.47;;
44130;SDS011;29792;48.726;9.248;2023-12-22T10:53:57;4.05;;;1.15;;
44130;SDS011;29792;48.726;9.248;2023-12-22T10:56:22;5.18;;;1.10;;
44130;SDS011;29792;48.726;9.248;2023-12-22T10:58:47;6.72;;;2.22;;
44130;SDS011;29792;48.726;9.248;2023-12-22T11:01:14;6.90;;;1.33;;
44130;SDS011;29792;48.726;9.248;2023-12-22T11:03:39;10.18;;;1.92;;
44130;SDS011;29792;48.726;9.248;2023-12-22T11:06:09;3.60;;;1.85;;
44130;SDS011;29792;48.726;9.248;2023-12-22T11:08:37;3.20;;;1.13;;
44130;SDS011;29792;48.726;9.248;2023-12-22T11:11:04;7.43;;;3.47;;
44130;SDS011;29792;48.726;9.248;2023-12-22T11:13:39;6.43;;;1.25;;
44130;SDS011;29792;48.726;9.248;2023-12-22T11:16:05;4.95;;;1.30;;
44130;SDS011;29792;48.726;9.248;2023-12-22T11:18:31;2.80;;;1.23;;
44130;SDS011;29792;48.726;9.248;2023-12-22T11:21:00;1.95;;;0.82;;
44130;SDS011;29792;48.726;9.248;2023-12-22T11:23:27;6.55;;;1.67;;
44130;SDS011;29792;48.726;9.248;2023-12-22T11:25:56;5.50;;;1.08;;
44130;SDS011;29792;48.726;9.248;2023-12-22T11:28:26;4.22;;;1.23;;
44130;SDS011;29792;48.726;9.248;2023-12-22T11:30:51;5.63;;;1.70;;
44130;SDS011;29792;48.726;9.248;2023-12-22T11:33:17;3.60;;;0.90;;
44130;SDS011;29792;48.726;9.248;2023-12-22T11:35:43;3.53;;;1.50;;
44130;SDS011;29792;48.726;9.248;2023-12-22T11:38:10;4.20;;;1.05;;
44130;SDS011;29792;48.726;9.248;2023-12-22T11:40:36;5.35;;;0.80;;
44130;SDS011;29792;48.726;9.248;2023-12-22T11:43:02;4.93;;;0.82;;
44130;SDS011;29792;48.726;9.248;2023-12-22T11:45:30;5.43;;;1.45;;
44130;SDS011;29792;48.726;9.248;2023-12-22T11:47:56;5.43;;;2.25;;
44130;SDS011;29792;48.726;9.248;2023-12-22T11:50:30;5.22;;;1.45;;
44130;SDS011;29792;48.726;9.248;2023-12-22T11:52:55;2.50;;;0.70;;
44130;SDS011;29792;48.726;9.248;2023-12-22T12:01:07;5.95;;;1.58;;
44130;SDS011;29792;48.726;9.248;2023-12-22T12:03:35;3.67;;;0.85;;
44130;SDS011;29792;48.726;9.248;2023-12-22T12:08:41;2.95;;;0.82;;
44130;SDS011;29792;48.726;9.248;2023-12-22T12:11:07;3.20;;;1.25;;
44130;SDS011;29792;48.726;9.248;2023-12-22T12:13:33;4.05;;;0.77;;
44130;SDS011;29792;48.726;9.248;2023-12-22T12:15:59;2.10;;;0.98;;
44130;SDS011;29792;48.726;9.248;2023-12-22T12:18:29;4.53;;;1.15;;
44130;SDS011;29792;48.726;9.248;2023-12-22T12:20:56;3.38;;;1.58;;
44130;SDS011;29792;48.726;9.248;2023-12-22T12:23:25;2.10;;;0.65;;
44130;SDS011;29792;48.726;9.248;2023-12-22T12:25:52;3.17;;;1.25;;
44130;SDS011;29792;48.726;9.248;2023-12-22T12:28:28;4.97;;;1.77;;
44130;SDS011;29792;48.726;9.248;2023-12-22T12:30:59;2.40;;;0.43;;
44130;SDS011;29792;48.726;9.248;2023-12-22T12:33:25;7.10;;;1.45;;
44130;SDS011;29792;48.726;9.248;2023-12-22T12:35:52;3.63;;;1.33;;
44130;SDS011;29792;48.726;9.248;2023-12-22T12:38:20;5.85;;;0.98;;
44130;SDS011;29792;48.726;9.248;2023-12-22T12:40:49;2.75;;;0.98;;
44130;SDS011;29792;48.726;9.248;2023-12-22T12:43:15;2.85;;;0.73;;
44130;SDS011;29792;48.726;9.248;2023-12-22T12:45:42;2.95;;;0.55;;
44130;SDS011;29792;48.726;9.248;2023-12-22T12:48:08;1.77;;;0.47;;
44130;SDS011;29792;48.726;9.248;2023-12-22T12:50:33;1.25;;;0.35;;
44130;SDS011;29792;48.726;9.248;2023-12-22T12:52:59;0.85;;;0.30;;
44130;SDS011;29792;48.726;9.248;2023-12-22T12:55:25;6.47;;;4.05;;
44130;SDS011;29792;48.726;9.248;2023-12-22T12:57:51;3.10;;;0.40;;
44130;SDS011;29792;48.726;9.248;2023-12-22T13:00:26;0.95;;;0.40;;
44130;SDS011;29792;48.726;9.248;2023-12-22T13:05:23;1.40;;;0.40;;
44130;SDS011;29792;48.726;9.248;2023-12-22T13:07:48;2.25;;;0.40;;
44130;SDS011;29792;48.726;9.248;2023-12-22T13:10:23;2.08;;;0.40;;
44130;SDS011;29792;48.726;9.248;2023-12-22T13:12:50;1.13;;;0.75;;
44130;SDS011;29792;48.726;9.248;2023-12-22T13:15:15;1.73;;;0.50;;
44130;SDS011;29792;48.726;9.248;2023-12-22T13:17:41;0.95;;;0.40;;
44130;SDS011;29792;48.726;9.248;2023-12-22T13:20:07;0.57;;;0.20;;
44130;SDS011;29792;48.726;9.248;2023-12-22T13:22:33;0.35;;;0.13;;
44130;SDS011;29792;48.726;9.248;2023-12-22T13:24:58;0.50;;;0.20;;
44130;SDS011;29792;48.726;9.248;2023-12-22T13:27:24;0.43;;;0.20;;
44130;SDS011;29792;48.726;9.248;2023-12-22T13:29:49;3.72;;;1.17;;
44130;SDS011;29792;48.726;9.248;2023-12-22T13:32:17;0.25;;;0.10;;
44130;SDS011;29792;48.726;9.248;2023-12-22T13:34:48;1.42;;;0.40;;
44130;SDS011;29792;48.726;9.248;2023-12-22T13:37:14;0.57;;;0.13;;
44130;SDS011;29792;48.726;9.248;2023-12-22T13:39:40;0.25;;;0.10;;
44130;SDS011;29792;48.726;9.248;2023-12-22T13:42:05;0.40;;;0.20;;
44130;SDS011;29792;48.726;9.248;2023-12-22T13:44:43;0.40;;;0.20;;
44130;SDS011;29792;48.726;9.248;2023-12-22T13:47:11;0.80;;;0.10;;
44130;SDS011;29792;48.726;9.248;2023-12-22T13:49:37;0.20;;;0.10;;
44130;SDS011;29792;48.726;9.248;2023-12-22T13:52:02;0.57;;;0.10;;
44130;SDS011;29792;48.726;9.248;2023-12-22T13:54:32;1.13;;;0.13;;
44130;SDS011;29792;48.726;9.248;2023-12-22T13:56:58;0.65;;;0.10;;
44130;SDS011;29792;48.726;9.248;2023-12-22T13:59:30;0.32;;;0.30;;
44130;SDS011;29792;48.726;9.248;2023-12-22T14:01:59;0.10;;;0.10;;
44130;SDS011;29792;48.726;9.248;2023-12-22T14:04:25;0.50;;;0.00;;
44130;SDS011;29792;48.726;9.248;2023-12-22T14:06:51;0.10;;;0.10;;
44130;SDS011;29792;48.726;9.248;2023-12-22T14:09:16;0.20;;;0.10;;
44130;SDS011;29792;48.726;9.248;2023-12-22T14:11:46;0.22;;;0.10;;
44130;SDS011;29792;48.726;9.248;2023-12-22T14:14:12;0.13;;;0.10;;
44130;SDS011;29792;48.726;9.248;2023-12-22T14:16:37;2.97;;;0.20;;
44130;SDS011;29792;48.726;9.248;2023-12-22T14:19:02;0.35;;;0.08;;
44130;SDS011;29792;48.726;9.248;2023-12-22T14:21:28;0.15;;;0.00;;
44130;SDS011;29792;48.726;9.248;2023-12-22T14:23:53;0.20;;;0.10;;
44130;SDS011;29792;48.726;9.248;2023-12-22T14:26:18;1.60;;;0.10;;
44130;SDS011;29792;48.726;9.248;2023-12-22T14:28:44;0.00;;;0.00;;
44130;SDS011;29792;48.726;9.248;2023-12-22T14:31:12;0.52;;;0.20;;
44130;SDS011;29792;48.726;9.248;2023-12-22T14:33:37;0.10;;;0.00;;
44130;SDS011;29792;48.726;9.248;2023-12-22T14:36:03;1.00;;;0.10;;
44130;SDS011;29792;48.726;9.248;2023-12-22T14:38:28;0.57;;;0.10;;
44130;SDS011;29792;48.726;9.248;2023-12-22T14:40:54;0.20;;;0.05;;
44130;SDS011;29792;48.726;9.248;2023-12-22T14:43:19;0.22;;;0.10;;
44130;SDS011;29792;48.726;9.248;2023-12-22T14:45:44;0.05;;;0.00;;
44130;SDS011;29792;48.726;9.248;2023-12-22T14:48:09;0.25;;;0.10;;
44130;SDS011;29792;48.726;9.248;2023-12-22T14:50:35;0.20;;;0.10;;
44130;SDS011;29792;48.726;9.248;2023-12-22T14:53:00;0.10;;;0.10;;
44130;SDS011;29792;48.726;9.248;2023-12-22T14:55:25;0.00;;;0.00;;
44130;SDS011;29792;48.726;9.248;2023-12-22T14:57:51;0.30;;;0.03;;
44130;SDS011;29792;48.726;9.248;2023-12-22T15:00:17;0.30;;;0.10;;
44130;SDS011;29792;48.726;9.248;2023-12-22T15:02:43;0.13;;;0.13;;